Decoded Metar for KLRY ( in ) (IATA:) | Meteo·Mobile Aviation Weather
aviador You're here:

KLRY Decoded Metar

in
Report Time2018-09-23 20:15:00
UTC Time2018-09-23 20:41:12
Flight Rules vfr VFR
Wind110° at 06 kt
W.Decomp.*RWY 17: 3.0 kt HW 5.2 kt LCW
W.Rank110° ranks 25
Current wind is above 110° avg. (5.2)
Visibility9999 m
Phenomena:N/A
Clouds:N/A
Expected CloudBase > 6,800 ft AGL from Temp-Dew spread
CeilingNone
Temp27°C
Dew Point10°C (34% RH)
Heat Index26.6°C
AAT24.8°C
QNH1017 hPa
Raw Report
KLRY 232015Z AUTO 11006KT 10SM CLR 27/10 A3003 RMK AO2=

Extra information for KLRY:More info

Social comments